Time;durP1;ratioP1;P1;durP2;ratioP2;P2;SDS_P1;SDS_P2;PMS_P1;PMS_P2;Temp;Humidity;BMP_temperature;BMP_pressure;BME280_temperature;BME280_humidity;BME280_pressure;Samples;Min_cycle;Max_cycle;Signal;HPM_P1;HPM_P2
2022/12/26 00:02:23;;;;;;;;;;;;;;;27.07;56.07;101364.31;5049626;28;66580;-33
2022/12/26 00:04:55;;;;;;;;;;;;;;;27.11;55.63;101365.66;5057588;28;70882;-35
2022/12/26 00:07:25;;;;;;;;;;;;;;;27.09;56.09;101362.28;5053925;28;66036;-34
2022/12/26 00:09:57;;;;;;;;;;;;;;;27.10;56.31;101369.34;5052760;28;70789;-33
2022/12/26 00:12:27;;;;;;;;;;;;;;;27.09;56.12;101370.38;5053267;28;65651;-34
2022/12/26 00:14:58;;;;;;;;;;;;;;;27.10;56.34;101373.91;5057805;28;69280;-33
2022/12/26 00:17:30;;;;;;;;;;;;;;;27.13;56.21;101379.75;5053130;28;66765;-34
2022/12/26 00:20:00;;;;;;;;;;;;;;;27.14;56.78;101386.81;5052813;28;69780;-36
2022/12/26 00:22:31;;;;;;;;;;;;;;;27.14;56.65;101392.22;5054303;28;66709;-34
2022/12/26 00:25:02;;;;;;;;;;;;;;;27.16;56.08;101389.34;5055752;27;69148;-35
2022/12/26 00:27:33;;;;;;;;;;;;;;;27.18;56.48;101385.47;5048499;28;65556;-36
2022/12/26 00:30:05;;;;;;;;;;;;;;;27.21;56.63;101388.81;5046184;28;69259;-34
2022/12/26 00:32:35;;;;;;;;;;;;;;;27.22;56.96;101398.56;5050735;28;67457;-36
2022/12/26 00:35:06;;;;;;;;;;;;;;;27.25;57.51;101398.22;5048771;28;69119;-35
2022/12/26 00:37:37;;;;;;;;;;;;;;;27.25;57.31;101399.03;5055018;28;63928;-33
2022/12/26 00:40:08;;;;;;;;;;;;;;;27.28;57.55;101408.63;5061925;28;69239;-34
2022/12/26 00:42:39;;;;;;;;;;;;;;;27.18;56.57;101404.31;5058104;28;67164;-35
2022/12/26 00:45:09;;;;;;;;;;;;;;;26.72;56.75;101344.31;5058845;28;70245;-37
2022/12/26 00:47:40;;;;;;;;;;;;;;;27.10;56.63;101401.66;5056062;27;66343;-36
2022/12/26 00:50:11;;;;;;;;;;;;;;;27.10;56.53;101409.72;5052356;28;70055;-36
2022/12/26 00:52:44;;;;;;;;;;;;;;;27.11;56.22;101407.91;5054957;28;66287;-36
2022/12/26 00:55:15;;;;;;;;;;;;;;;27.11;56.21;101414.13;5048697;28;69235;-35
2022/12/26 00:57:45;;;;;;;;;;;;;;;27.11;56.07;101408.72;5059200;28;66326;-36
2022/12/26 01:00:16;;;;;;;;;;;;;;;27.12;55.84;101415.78;5057244;28;70342;-36
2022/12/26 01:02:47;;;;;;;;;;;;;;;27.12;55.83;101410.41;5052751;28;65961;-37
2022/12/26 01:05:18;;;;;;;;;;;;;;;27.14;55.30;101412.91;5059085;28;70250;-36
2022/12/26 01:07:48;;;;;;;;;;;;;;;27.14;55.24;101413.75;5058567;28;65266;-36
2022/12/26 01:10:42;;;;;;;;;;;;;;;27.16;55.03;101422.53;5060939;28;69152;-35
2022/12/26 01:13:14;;;;;;;;;;;;;;;27.16;54.91;101422.53;5059725;28;66801;-37
2022/12/26 01:15:48;;;;;;;;;;;;;;;27.17;54.73;101417.97;5058190;28;69263;-35
2022/12/26 01:18:20;;;;;;;;;;;;;;;27.18;54.60;101423.16;5051523;28;66848;-35
2022/12/26 01:20:51;;;;;;;;;;;;;;;27.20;54.70;101430.25;5060857;28;70094;-36
2022/12/26 01:23:21;;;;;;;;;;;;;;;27.20;54.55;101432.94;5060365;28;67175;-35
2022/12/26 01:25:52;;;;;;;;;;;;;;;27.20;54.70;101431.06;5053141;28;70301;-36
2022/12/26 01:28:43;;;;;;;;;;;;;;;27.22;54.45;101430.88;5052815;28;66016;-36
2022/12/26 01:31:14;;;;;;;;;;;;;;;27.23;54.23;101430.69;5059960;28;70324;-36
2022/12/26 01:33:46;;;;;;;;;;;;;;;27.24;54.27;101434.22;5049984;28;65757;-36
2022/12/26 01:36:18;;;;;;;;;;;;;;;27.26;54.21;101437.59;5061522;28;69770;-39
2022/12/26 01:38:48;;;;;;;;;;;;;;;27.26;53.98;101437.59;5060074;28;65587;-36
2022/12/26 01:41:19;;;;;;;;;;;;;;;27.28;54.16;101441.78;5056913;28;69861;-36
2022/12/26 01:44:26;;;;;;;;;;;;;;;27.29;54.07;101439.91;5057527;28;66670;-36
2022/12/26 01:46:58;;;;;;;;;;;;;;;27.30;54.17;101438.88;5060647;28;70291;-35
2022/12/26 01:49:32;;;;;;;;;;;;;;;27.31;54.07;101435.19;5053798;28;66957;-35
2022/12/26 01:52:05;;;;;;;;;;;;;;;27.31;53.85;101443.25;5057198;28;69822;-35
2022/12/26 01:54:37;;;;;;;;;;;;;;;27.32;54.00;101442.22;5052078;28;66836;-38
2022/12/26 01:57:16;;;;;;;;;;;;;;;27.34;53.68;101443.72;5052131;28;70240;-35
2022/12/26 02:00:05;;;;;;;;;;;;;;;27.35;53.76;101450.78;5050833;28;66056;-39
2022/12/26 02:05:50;;;;;;;;;;;;;;;27.39;53.58;101448.59;5044880;28;66166;-37
2022/12/26 02:08:26;;;;;;;;;;;;;;;27.41;53.35;101451.91;5048931;28;69182;-39
2022/12/26 02:11:08;;;;;;;;;;;;;;;27.43;53.54;101449.88;5052018;28;66505;-37
2022/12/26 02:13:39;;;;;;;;;;;;;;;27.44;53.53;101448.84;5056265;28;70256;-36
2022/12/26 02:16:12;;;;;;;;;;;;;;;27.48;53.43;101457.41;5058338;28;66424;-41
2022/12/26 02:18:44;;;;;;;;;;;;;;;27.48;53.14;101452.84;5060988;28;70304;-40
2022/12/26 02:21:39;;;;;;;;;;;;;;;27.50;53.21;101453.53;5052565;28;65455;-37
2022/12/26 02:24:10;;;;;;;;;;;;;;;27.53;53.48;101461.22;5057851;28;69244;-36
2022/12/26 02:26:59;;;;;;;;;;;;;;;27.55;53.13;101452.94;5054722;28;66449;-36
2022/12/26 02:29:48;;;;;;;;;;;;;;;27.56;53.06;101450.09;5057701;28;68922;-37
2022/12/26 02:32:19;;;;;;;;;;;;;;;27.58;52.84;101450.75;5058768;28;66116;-39
2022/12/26 02:35:01;;;;;;;;;;;;;;;27.60;52.90;101445.16;5056852;28;70000;-39
2022/12/26 02:37:41;;;;;;;;;;;;;;;27.62;52.78;101449.34;5056152;28;66272;-36
2022/12/26 02:40:47;;;;;;;;;;;;;;;27.63;52.83;101451.00;5049653;28;69190;-37
2022/12/26 02:43:47;;;;;;;;;;;;;;;27.68;52.79;101441.53;4997770;28;66876;-39
2022/12/26 03:13:15;;;;;;;;;;;;;;;27.91;52.64;101420.72;5051377;28;66817;-36
2022/12/26 03:18:41;;;;;;;;;;;;;;;27.97;52.33;101408.34;5058573;28;67901;-39
2022/12/26 03:21:31;;;;;;;;;;;;;;;28.00;52.40;101406.16;5053699;28;70542;-36
2022/12/26 03:24:02;;;;;;;;;;;;;;;28.01;52.32;101405.09;5056263;28;66668;-36
2022/12/26 03:26:40;;;;;;;;;;;;;;;28.03;51.96;101405.75;5055446;28;69692;-36
2022/12/26 03:32:04;;;;;;;;;;;;;;;28.09;52.21;101395.25;5055988;28;70495;-38
2022/12/26 03:34:39;;;;;;;;;;;;;;;28.12;52.41;101394.88;5056351;28;66926;-37
2022/12/26 03:37:19;;;;;;;;;;;;;;;28.15;52.17;101389.09;5047688;28;69954;-37
2022/12/26 04:44:30;;;;;;;;;;;;;;;28.87;50.59;101291.81;5061227;27;66162;-36
2022/12/26 04:47:00;;;;;;;;;;;;;;;28.91;50.89;101295.78;5057831;28;70084;-37
2022/12/26 04:52:53;;;;;;;;;;;;;;;28.95;50.80;101282.72;5058615;28;70306;-37
2022/12/26 04:55:20;;;;;;;;;;;;;;;29.00;51.24;101274.00;5057603;28;67402;-35
2022/12/26 04:57:50;;;;;;;;;;;;;;;29.02;51.20;101271.97;5054362;28;69174;-37
2022/12/26 05:00:23;;;;;;;;;;;;;;;29.04;50.81;101264.53;5056244;28;65276;-38
2022/12/26 05:11:30;;;;;;;;;;;;;;;29.11;50.38;101246.47;5051976;28;66176;-35
2022/12/26 05:14:01;;;;;;;;;;;;;;;29.13;50.65;101241.72;5058336;28;70316;-36
2022/12/26 05:30:42;;;;;;;;;;;;;;;29.18;50.23;101220.34;5057422;28;69308;-35
2022/12/26 05:36:01;;;;;;;;;;;;;;;29.15;49.65;101202.66;5056210;28;70818;-36
2022/12/26 05:38:32;;;;;;;;;;;;;;;29.18;50.22;101202.25;5051823;28;66392;-36
2022/12/26 05:41:03;;;;;;;;;;;;;;;29.22;49.78;101202.69;5053523;28;69689;-39
2022/12/26 05:43:33;;;;;;;;;;;;;;;29.23;50.04;101188.16;5050172;28;66700;-38
2022/12/26 05:46:05;;;;;;;;;;;;;;;29.23;50.04;101184.63;5058171;28;69018;-36
2022/12/26 05:48:36;;;;;;;;;;;;;;;29.25;49.93;101175.25;5051826;28;65995;-36
2022/12/26 05:51:07;;;;;;;;;;;;;;;29.25;49.65;101177.97;5055206;28;69031;-37
2022/12/26 05:53:37;;;;;;;;;;;;;;;29.27;49.47;101173.19;5055845;28;65919;-37
2022/12/26 05:56:12;;;;;;;;;;;;;;;29.27;49.65;101167.78;5051623;28;70323;-37
2022/12/26 05:58:43;;;;;;;;;;;;;;;29.28;49.86;101158.69;5052682;28;66642;-37
2022/12/26 06:01:15;;;;;;;;;;;;;;;29.29;49.56;101152.22;5055553;28;70832;-35
2022/12/26 06:03:47;;;;;;;;;;;;;;;29.30;49.92;101153.88;5055390;28;66404;-39
2022/12/26 06:06:18;;;;;;;;;;;;;;;29.31;49.79;101152.84;5054958;28;69329;-39
2022/12/26 06:08:53;;;;;;;;;;;;;;;29.31;49.61;101144.75;5054475;28;66360;-38
2022/12/26 06:11:25;;;;;;;;;;;;;;;29.32;49.79;101149.09;5052739;28;69514;-35
2022/12/26 06:13:56;;;;;;;;;;;;;;;29.33;49.43;101136.44;5051792;28;67106;-35
2022/12/26 06:16:27;;;;;;;;;;;;;;;29.34;49.17;101130.84;5057314;28;70328;-39
2022/12/26 06:18:58;;;;;;;;;;;;;;;29.35;49.15;101129.78;5058918;28;65769;-36
2022/12/26 06:21:29;;;;;;;;;;;;;;;29.35;49.59;101137.06;5050669;28;69220;-39
2022/12/26 06:23:59;;;;;;;;;;;;;;;29.37;49.60;101137.69;5059358;28;66724;-39
2022/12/26 06:26:31;;;;;;;;;;;;;;;29.37;49.50;101129.59;5054248;28;70281;-36
2022/12/26 06:29:02;;;;;;;;;;;;;;;29.37;49.58;101130.41;5057248;28;65991;-35
2022/12/26 06:31:33;;;;;;;;;;;;;;;29.37;49.09;101118.78;5055857;28;70386;-37
2022/12/26 06:34:04;;;;;;;;;;;;;;;29.39;49.45;101130.19;5059114;28;67096;-36
2022/12/26 06:36:34;;;;;;;;;;;;;;;29.39;49.56;101117.53;5051563;28;70237;-37
2022/12/26 06:39:05;;;;;;;;;;;;;;;29.40;49.38;101107.56;5050263;28;66693;-34
2022/12/26 06:41:36;;;;;;;;;;;;;;;29.42;48.95;101107.34;5051006;28;69700;-38
2022/12/26 06:44:08;;;;;;;;;;;;;;;29.42;49.32;101105.50;5051002;28;65954;-35
2022/12/26 06:46:46;;;;;;;;;;;;;;;29.44;48.85;101103.41;5050760;28;70630;-34
2022/12/26 06:49:17;;;;;;;;;;;;;;;29.46;49.34;101095.09;5068614;27;66557;-36
2022/12/26 06:51:48;;;;;;;;;;;;;;;29.47;49.22;101102.16;5054422;28;70543;-36
2022/12/26 06:54:19;;;;;;;;;;;;;;;29.48;49.28;101101.97;5051162;28;65945;-37
2022/12/26 06:56:50;;;;;;;;;;;;;;;29.49;48.67;101086.56;5054701;28;70214;-34
2022/12/26 06:59:21;;;;;;;;;;;;;;;29.52;49.25;101091.56;5051321;28;66686;-36
2022/12/26 07:01:51;;;;;;;;;;;;;;;29.52;49.08;101083.47;5052512;28;70686;-36
2022/12/26 07:04:23;;;;;;;;;;;;;;;29.06;48.61;101019.34;5054583;28;67078;-35
2022/12/26 07:06:54;;;;;;;;;;;;;;;29.56;49.13;101090.09;5052083;28;69669;-35
2022/12/26 07:09:25;;;;;;;;;;;;;;;29.58;49.00;101093.44;5056289;28;66501;-35
2022/12/26 07:12:02;;;;;;;;;;;;;;;29.59;48.58;101084.31;5055012;28;70071;-36
2022/12/26 07:14:33;;;;;;;;;;;;;;;29.60;48.61;101080.56;5054505;28;67749;-35
2022/12/26 07:17:04;;;;;;;;;;;;;;;29.61;48.57;101090.31;5055774;28;70220;-36
2022/12/26 07:19:34;;;;;;;;;;;;;;;29.62;48.76;101090.13;5054602;28;67018;-35
2022/12/26 07:22:06;;;;;;;;;;;;;;;29.64;48.34;101086.41;5047489;28;70321;-36
2022/12/26 07:24:36;;;;;;;;;;;;;;;29.62;48.43;101081.19;5049612;28;66203;-36
2022/12/26 07:27:07;;;;;;;;;;;;;;;29.65;48.56;101080.81;5054724;28;71420;-35
2022/12/26 07:29:38;;;;;;;;;;;;;;;29.67;48.42;101080.59;5052753;28;67101;-36
2022/12/26 07:32:09;;;;;;;;;;;;;;;29.67;48.64;101073.31;5058730;28;69150;-35
2022/12/26 07:34:40;;;;;;;;;;;;;;;29.69;48.50;101076.63;5058562;28;65963;-35
2022/12/26 07:37:11;;;;;;;;;;;;;;;29.70;47.98;101078.31;5058866;27;71020;-34
2022/12/26 07:39:42;;;;;;;;;;;;;;;29.71;48.53;101071.84;5046662;28;65408;-38
2022/12/26 07:42:12;;;;;;;;;;;;;;;29.73;48.06;101074.38;5053736;28;69284;-39
2022/12/26 07:44:43;;;;;;;;;;;;;;;29.72;48.57;101068.09;5058512;28;67846;-35
2022/12/26 07:47:14;;;;;;;;;;;;;;;29.77;47.92;101072.91;5057542;28;70245;-35
2022/12/26 07:49:45;;;;;;;;;;;;;;;29.78;48.50;101072.69;5051677;28;65331;-38
2022/12/26 07:52:15;;;;;;;;;;;;;;;29.80;47.97;101076.00;5056693;28;70270;-35
2022/12/26 07:54:47;;;;;;;;;;;;;;;29.83;47.78;101070.19;5058586;28;66921;-36
2022/12/26 07:57:18;;;;;;;;;;;;;;;29.84;48.42;101065.63;5056409;28;70664;-34
2022/12/26 08:00:08;;;;;;;;;;;;;;;29.87;48.26;101075.19;5057450;28;66909;-36
2022/12/26 08:02:40;;;;;;;;;;;;;;;29.88;47.95;101077.69;5054185;28;70477;-34
2022/12/26 08:05:11;;;;;;;;;;;;;;;29.90;47.75;101080.19;5056031;28;66087;-36
2022/12/26 08:07:42;;;;;;;;;;;;;;;29.92;47.72;101078.09;5057264;28;70870;-38
2022/12/26 08:10:13;;;;;;;;;;;;;;;29.91;47.88;101071.84;5046974;28;66240;-38
2022/12/26 08:12:44;;;;;;;;;;;;;;;29.93;48.12;101077.06;5057657;28;70096;-36
2022/12/26 08:15:15;;;;;;;;;;;;;;;29.95;47.60;101088.47;5056497;28;65903;-35
2022/12/26 08:17:45;;;;;;;;;;;;;;;29.97;47.60;101086.41;5056783;28;69264;-34
2022/12/26 08:20:16;;;;;;;;;;;;;;;29.97;47.72;101083.69;5061182;28;66464;-35
2022/12/26 08:22:47;;;;;;;;;;;;;;;29.99;47.35;101084.31;5056801;28;69396;-35
2022/12/26 08:25:18;;;;;;;;;;;;;;;30.00;47.70;101085.97;5061053;28;67162;-36
2022/12/26 08:27:50;;;;;;;;;;;;;;;30.01;47.36;101079.56;5050343;28;70604;-35
2022/12/26 08:30:21;;;;;;;;;;;;;;;30.02;47.89;101083.91;5059436;28;66926;-34
2022/12/26 08:32:52;;;;;;;;;;;;;;;30.02;47.43;101083.91;5060321;28;70246;-35
2022/12/26 08:35:24;;;;;;;;;;;;;;;30.03;47.76;101080.16;5062477;28;65629;-38
2022/12/26 08:37:55;;;;;;;;;;;;;;;30.03;47.40;101086.41;5044772;28;70178;-35
2022/12/26 08:40:26;;;;;;;;;;;;;;;30.05;47.29;101094.31;5057151;28;66975;-34
2022/12/26 08:43:12;;;;;;;;;;;;;;;30.05;47.69;101088.91;5052543;28;69223;-34
2022/12/26 08:46:06;;;;;;;;;;;;;;;30.05;47.71;101089.72;5062002;28;42880;-35
2022/12/26 08:48:38;;;;;;;;;;;;;;;30.06;47.78;101094.09;5059812;28;70314;-35
2022/12/26 08:51:12;;;;;;;;;;;;;;;30.07;47.73;101103.06;5076123;27;66095;-34
2022/12/26 08:53:44;;;;;;;;;;;;;;;30.08;47.37;101104.69;5056816;28;69742;-35
2022/12/26 08:56:16;;;;;;;;;;;;;;;30.08;47.45;101103.88;5060342;28;67054;-35
2022/12/26 08:58:47;;;;;;;;;;;;;;;30.09;47.62;101103.69;5059248;28;69998;-34
2022/12/26 09:01:20;;;;;;;;;;;;;;;30.07;47.46;101103.06;5057565;28;66742;-34
2022/12/26 09:03:52;;;;;;;;;;;;;;;30.10;47.13;101110.75;5052305;28;70195;-36
2022/12/26 09:06:23;;;;;;;;;;;;;;;30.11;46.96;101112.41;5055823;28;66617;-35
2022/12/26 09:08:54;;;;;;;;;;;;;;;30.12;47.31;101105.97;5058840;28;69737;-38
2022/12/26 09:11:25;;;;;;;;;;;;;;;30.13;47.79;101112.19;5053529;28;65900;-35
2022/12/26 09:13:58;;;;;;;;;;;;;;;30.12;47.50;101114.09;5057684;28;69844;-35
2022/12/26 09:16:30;;;;;;;;;;;;;;;30.13;47.27;101117.63;5052979;28;66631;-35
2022/12/26 09:19:09;;;;;;;;;;;;;;;30.13;47.09;101104.91;5053742;28;69955;-35
2022/12/26 09:21:40;;;;;;;;;;;;;;;30.14;47.40;101120.09;5055817;28;66263;-35
2022/12/26 09:24:12;;;;;;;;;;;;;;;30.14;47.81;101111.97;5058542;28;70402;-35
2022/12/26 09:26:44;;;;;;;;;;;;;;;30.14;47.53;101113.84;5058622;28;66510;-36
2022/12/26 09:29:15;;;;;;;;;;;;;;;30.14;47.30;101111.97;5057500;28;70347;-35
2022/12/26 09:31:45;;;;;;;;;;;;;;;30.15;47.78;101120.94;5053711;28;65311;-35
2022/12/26 09:34:18;;;;;;;;;;;;;;;30.14;47.94;101120.09;5056939;28;69792;-34
2022/12/26 09:36:49;;;;;;;;;;;;;;;30.15;47.83;101120.94;5051324;28;66114;-36
2022/12/26 09:39:20;;;;;;;;;;;;;;;30.14;47.72;101130.91;5056777;28;70098;-35
2022/12/26 09:41:53;;;;;;;;;;;;;;;30.14;48.27;101127.38;5054123;28;66460;-36
2022/12/26 09:44:27;;;;;;;;;;;;;;;30.14;48.35;101133.63;5054031;28;70435;-35
2022/12/26 09:47:07;;;;;;;;;;;;;;;30.14;48.38;101135.50;5055677;28;66594;-36
2022/12/26 09:49:58;;;;;;;;;;;;;;;30.13;48.48;101134.66;5049760;28;69836;-40
2022/12/26 09:52:36;;;;;;;;;;;;;;;30.13;48.02;101148.19;5036551;28;65307;-37
2022/12/26 09:55:18;;;;;;;;;;;;;;;30.11;48.68;101147.56;5057997;28;70059;-34
2022/12/26 09:57:50;;;;;;;;;;;;;;;30.12;48.51;101154.66;5052061;28;66948;-36
2022/12/26 10:00:24;;;;;;;;;;;;;;;30.11;48.87;101152.97;5054342;28;69901;-37
2022/12/26 10:02:57;;;;;;;;;;;;;;;30.11;48.39;101162.97;5057729;28;65761;-37
2022/12/26 10:05:40;;;;;;;;;;;;;;;30.10;48.74;101175.69;5058620;28;70395;-35
2022/12/26 10:08:16;;;;;;;;;;;;;;;30.04;49.20;101168.41;5055391;28;66483;-36
2022/12/26 10:10:54;;;;;;;;;;;;;;;30.08;49.27;101179.63;5050906;28;70050;-34
2022/12/26 10:13:33;;;;;;;;;;;;;;;30.06;49.91;101177.97;5056535;28;66843;-35
2022/12/26 10:16:11;;;;;;;;;;;;;;;30.07;49.24;101192.31;5057078;28;70294;-35
2022/12/26 10:18:50;;;;;;;;;;;;;;;30.05;50.70;101194.41;5070592;27;66011;-35
2022/12/26 10:21:39;;;;;;;;;;;;;;;30.06;50.66;101204.16;5049563;28;69878;-36
2022/12/26 10:24:19;;;;;;;;;;;;;;;30.04;51.93;101206.28;5051533;28;65361;-35
2022/12/26 10:26:52;;;;;;;;;;;;;;;30.03;52.92;101210.00;5052302;28;70660;-37
2022/12/26 10:29:31;;;;;;;;;;;;;;;30.05;53.95;101214.16;5051216;28;66594;-35
2022/12/26 10:32:35;;;;;;;;;;;;;;;30.05;54.17;101213.34;5055105;28;69536;-35
2022/12/26 10:35:32;;;;;;;;;;;;;;;30.10;56.32;101213.56;5022256;28;66359;-34
2022/12/26 10:38:10;;;;;;;;;;;;;;;30.07;55.51;101211.25;5049962;28;69474;-34
2022/12/26 10:40:43;;;;;;;;;;;;;;;30.08;56.29;101212.91;5052456;28;66790;-39
2022/12/26 10:43:18;;;;;;;;;;;;;;;30.06;56.49;101210.44;5050065;28;69443;-38
2022/12/26 10:45:48;;;;;;;;;;;;;;;30.08;55.93;101223.75;5054833;28;66693;-38
2022/12/26 10:48:19;;;;;;;;;;;;;;;30.07;56.86;101222.09;5054547;28;71002;-36
2022/12/26 10:50:50;;;;;;;;;;;;;;;30.04;56.37;101223.31;5056527;28;66969;-37
2022/12/26 10:53:21;;;;;;;;;;;;;;;30.04;57.43;101227.91;5057783;28;68519;-38
2022/12/26 10:55:52;;;;;;;;;;;;;;;29.67;57.55;101173.34;5050913;28;66422;-37
2022/12/26 10:58:22;;;;;;;;;;;;;;;30.05;57.10;101232.28;5052346;28;69360;-34
2022/12/26 11:00:54;;;;;;;;;;;;;;;30.04;56.46;101238.72;5054261;28;66136;-36
2022/12/26 11:03:25;;;;;;;;;;;;;;;29.80;56.58;101211.22;5052793;28;70215;-34
2022/12/26 11:06:03;;;;;;;;;;;;;;;30.03;56.44;101246.00;5054101;28;66376;-35
2022/12/26 11:08:38;;;;;;;;;;;;;;;30.03;56.57;101255.97;5050794;28;70617;-38
2022/12/26 11:11:17;;;;;;;;;;;;;;;30.00;56.49;101248.28;5049194;28;67053;-35
2022/12/26 11:13:58;;;;;;;;;;;;;;;29.98;56.50;101256.63;5049452;28;70733;-35
2022/12/26 11:16:34;;;;;;;;;;;;;;;29.99;56.55;101254.75;5052180;28;67265;-39
2022/12/26 11:19:05;;;;;;;;;;;;;;;29.97;56.04;101259.50;5046592;28;69628;-35
2022/12/26 11:21:35;;;;;;;;;;;;;;;29.94;56.37;101262.63;5052261;28;66899;-36
2022/12/26 11:24:06;;;;;;;;;;;;;;;29.94;55.99;101266.16;5048542;28;69945;-34
2022/12/26 11:26:37;;;;;;;;;;;;;;;29.95;55.63;101267.84;5046080;28;65603;-39
2022/12/26 11:29:19;;;;;;;;;;;;;;;29.95;55.93;101261.59;5052498;28;70841;-36
2022/12/26 11:32:18;;;;;;;;;;;;;;;29.95;56.02;101267.00;5047311;28;66442;-38
2022/12/26 11:34:53;;;;;;;;;;;;;;;29.94;56.22;101268.03;5044074;28;71237;-35
2022/12/26 11:37:31;;;;;;;;;;;;;;;29.92;56.03;101267.41;5058106;28;66493;-35
2022/12/26 11:40:19;;;;;;;;;;;;;;;29.91;56.02;101271.16;5052010;28;69242;-36
2022/12/26 11:42:54;;;;;;;;;;;;;;;29.90;56.12;101264.91;5054115;28;65731;-38
2022/12/26 11:45:29;;;;;;;;;;;;;;;29.90;56.03;101264.09;5048349;28;70426;-38
2022/12/26 11:48:16;;;;;;;;;;;;;;;29.91;56.72;101273.88;5049388;28;66409;-35
2022/12/26 11:50:47;;;;;;;;;;;;;;;29.92;55.91;101272.81;5052577;28;70535;-37
2022/12/26 11:53:19;;;;;;;;;;;;;;;29.91;56.33;101281.97;5053059;28;65723;-36
2022/12/26 11:56:00;;;;;;;;;;;;;;;29.91;56.84;101276.56;5056504;28;69959;-36
2022/12/26 11:58:32;;;;;;;;;;;;;;;29.90;56.90;101275.75;5054696;28;66336;-36
2022/12/26 12:01:09;;;;;;;;;;;;;;;29.89;57.21;101278.63;5049835;28;70137;-36
2022/12/26 12:03:41;;;;;;;;;;;;;;;29.89;56.48;101284.03;5055771;28;66581;-36
2022/12/26 12:06:26;;;;;;;;;;;;;;;29.87;57.11;101284.25;5051412;28;70671;-38
2022/12/26 12:09:00;;;;;;;;;;;;;;;29.89;57.95;101295.69;5060148;28;66184;-38
2022/12/26 12:11:55;;;;;;;;;;;;;;;29.81;59.08;101293.16;5048865;28;70347;-38
2022/12/26 12:14:52;;;;;;;;;;;;;;;29.75;59.37;101302.94;5054446;28;65499;-40
2022/12/26 12:17:29;;;;;;;;;;;;;;;29.69;60.35;101309.16;5051725;28;70602;-38
2022/12/26 12:20:10;;;;;;;;;;;;;;;29.65;61.20;101305.19;5054487;28;66895;-35
2022/12/26 12:22:51;;;;;;;;;;;;;;;29.63;61.37;101312.66;5055669;28;71366;-37
2022/12/26 12:25:36;;;;;;;;;;;;;;;29.56;61.09;101311.75;5058433;28;66742;-39
2022/12/26 12:28:25;;;;;;;;;;;;;;;29.59;61.11;101316.78;5054336;28;69540;-37
2022/12/26 12:31:11;;;;;;;;;;;;;;;29.56;61.18;101323.44;5049943;28;66336;-40
2022/12/26 12:33:48;;;;;;;;;;;;;;;29.55;62.17;101326.31;5049081;28;70349;-36
2022/12/26 12:36:21;;;;;;;;;;;;;;;29.55;61.59;101332.56;5052532;28;66177;-37
2022/12/26 12:38:52;;;;;;;;;;;;;;;29.57;61.61;101333.19;5055301;28;70311;-40
2022/12/26 12:41:43;;;;;;;;;;;;;;;29.57;61.25;101345.88;5055760;28;65651;-35
2022/12/26 12:44:13;;;;;;;;;;;;;;;29.57;60.91;101333.19;5051586;28;70497;-38
2022/12/26 12:46:56;;;;;;;;;;;;;;;29.55;61.08;101337.13;5054066;28;66631;-40
2022/12/26 12:49:34;;;;;;;;;;;;;;;29.54;61.07;101336.31;5052281;28;70627;-38
2022/12/26 12:52:23;;;;;;;;;;;;;;;29.51;60.99;101330.47;5062099;27;66434;-39
2022/12/26 12:54:53;;;;;;;;;;;;;;;29.49;60.62;101337.94;5050062;28;70823;-36
2022/12/26 12:57:30;;;;;;;;;;;;;;;29.49;60.46;101337.94;5054474;28;66207;-41
2022/12/26 13:00:12;;;;;;;;;;;;;;;29.47;60.83;101340.81;5052937;28;70292;-36
2022/12/26 13:02:50;;;;;;;;;;;;;;;29.42;61.23;101342.47;5058115;28;66354;-38
2022/12/26 13:05:40;;;;;;;;;;;;;;;29.51;61.30;101352.09;5069948;27;70228;-37
2022/12/26 13:08:36;;;;;;;;;;;;;;;29.50;61.37;101345.00;5059984;28;66967;-36
2022/12/26 13:11:15;;;;;;;;;;;;;;;29.47;62.02;101340.00;5045416;28;70554;-38
2022/12/26 13:14:02;;;;;;;;;;;;;;;29.48;61.74;101352.50;5057833;28;66259;-36
2022/12/26 13:16:43;;;;;;;;;;;;;;;29.45;61.39;101352.88;5050994;28;69407;-36
2022/12/26 13:19:26;;;;;;;;;;;;;;;29.44;60.94;101357.44;5055465;28;65584;-38
2022/12/26 13:22:00;;;;;;;;;;;;;;;29.44;61.53;101345.81;5052377;28;70213;-40
2022/12/26 13:24:35;;;;;;;;;;;;;;;29.44;61.98;101356.63;5060394;28;66040;-38
2022/12/26 13:27:06;;;;;;;;;;;;;;;29.42;61.86;101358.69;5052524;28;68937;-39
2022/12/26 13:29:41;;;;;;;;;;;;;;;29.42;61.64;101353.28;5053171;28;66656;-38
2022/12/26 13:32:15;;;;;;;;;;;;;;;29.41;61.30;101360.56;5053608;28;70251;-39
2022/12/26 13:34:46;;;;;;;;;;;;;;;29.39;61.08;101366.16;5053461;28;65933;-38
2022/12/26 13:37:32;;;;;;;;;;;;;;;29.37;61.07;101362.81;5053627;28;69736;-36
2022/12/26 13:40:24;;;;;;;;;;;;;;;29.36;61.44;101371.97;5046975;28;66773;-38
2022/12/26 13:45:43;;;;;;;;;;;;;;;29.13;59.08;101364.09;5051035;28;66709;-37
2022/12/26 13:48:14;;;;;;;;;;;;;;;29.11;58.28;101368.91;5060021;28;69478;-39
2022/12/26 13:50:48;;;;;;;;;;;;;;;29.07;57.48;101366.78;5059265;28;66704;-36
2022/12/26 13:53:24;;;;;;;;;;;;;;;29.00;56.94;101363.16;5049732;28;69444;-40
2022/12/26 13:55:55;;;;;;;;;;;;;;;28.95;57.24;101361.88;5053017;28;66417;-36
2022/12/26 13:58:37;;;;;;;;;;;;;;;28.94;56.55;101362.88;5057016;28;69358;-39
2022/12/26 14:01:27;;;;;;;;;;;;;;;28.89;56.13;101365.38;5052735;28;65598;-41
2022/12/26 14:03:58;;;;;;;;;;;;;;;28.88;56.12;101362.84;5047908;28;69724;-37
2022/12/26 14:06:49;;;;;;;;;;;;;;;28.83;55.94;101359.91;5054075;28;66455;-39
2022/12/26 14:09:31;;;;;;;;;;;;;;;28.78;55.71;101363.19;5048662;28;68973;-39
2022/12/26 14:12:02;;;;;;;;;;;;;;;28.72;55.21;101358.56;5049521;28;66710;-37
2022/12/26 14:14:48;;;;;;;;;;;;;;;28.69;54.42;101361.66;5052333;28;70258;-38
2022/12/26 14:17:40;;;;;;;;;;;;;;;28.62;54.23;101356.19;5046001;28;66696;-38
2022/12/26 14:20:28;;;;;;;;;;;;;;;28.61;54.02;101356.38;5055186;28;70884;-41
2022/12/26 14:23:09;;;;;;;;;;;;;;;28.54;53.09;101355.50;5049507;28;66460;-42
2022/12/26 14:26:00;;;;;;;;;;;;;;;28.51;52.64;101359.41;5049988;28;70780;-41
2022/12/26 14:28:37;;;;;;;;;;;;;;;28.47;52.63;101369.78;5047228;28;65492;-38
2022/12/26 14:31:11;;;;;;;;;;;;;;;28.43;51.82;101365.75;5047743;28;69754;-38
2022/12/26 14:33:45;;;;;;;;;;;;;;;28.43;51.78;101365.75;5056149;28;67876;-41
2022/12/26 14:36:24;;;;;;;;;;;;;;;28.42;51.34;101366.81;5051653;28;70156;-36
2022/12/26 14:39:15;;;;;;;;;;;;;;;28.32;50.99;101363.53;5047714;28;65887;-35
2022/12/26 14:44:56;;;;;;;;;;;;;;;28.32;50.44;101362.72;5050647;28;65626;-35
2022/12/26 14:47:44;;;;;;;;;;;;;;;28.29;50.39;101358.53;5069675;27;68463;-37
2022/12/26 14:50:36;;;;;;;;;;;;;;;28.23;51.13;101353.91;5053021;28;66082;-36
2022/12/26 14:53:13;;;;;;;;;;;;;;;28.28;50.99;101360.41;5048434;28;69964;-38
2022/12/26 14:55:50;;;;;;;;;;;;;;;28.31;50.59;101355.66;5050654;28;66219;-39
2022/12/26 14:58:28;;;;;;;;;;;;;;;28.34;50.14;101355.28;5055368;28;69385;-37
2022/12/26 15:01:12;;;;;;;;;;;;;;;28.34;49.41;101353.41;5052359;28;65359;-39
2022/12/26 15:04:03;;;;;;;;;;;;;;;28.34;50.55;101355.28;5055688;28;68894;-39
2022/12/26 15:06:47;;;;;;;;;;;;;;;28.35;48.81;101359.63;5048591;28;65877;-37
2022/12/26 15:09:28;;;;;;;;;;;;;;;28.32;48.13;101350.06;5052376;28;70008;-37
2022/12/26 15:12:18;;;;;;;;;;;;;;;28.34;48.47;101358.81;5053176;28;65394;-38
2022/12/26 15:14:59;;;;;;;;;;;;;;;28.30;48.59;101354.81;5055352;28;69655;-35
2022/12/26 15:17:49;;;;;;;;;;;;;;;28.29;47.48;101348.56;5049462;28;65174;-36
2022/12/26 15:20:48;;;;;;;;;;;;;;;28.29;47.40;101356.66;5058007;28;70126;-38
2022/12/26 15:23:20;;;;;;;;;;;;;;;28.28;46.92;101346.09;5055310;28;66608;-35
2022/12/26 15:25:50;;;;;;;;;;;;;;;28.26;46.68;101340.88;5057396;28;69926;-39
2022/12/26 15:28:28;;;;;;;;;;;;;;;28.25;47.46;101341.03;5063317;28;64701;-36
2022/12/26 15:31:05;;;;;;;;;;;;;;;28.23;46.70;101348.50;5051250;28;70759;-38
2022/12/26 15:33:59;;;;;;;;;;;;;;;28.23;46.25;101343.13;5046123;28;66740;-39
2022/12/26 15:36:40;;;;;;;;;;;;;;;28.20;46.00;101343.50;5045202;28;70084;-38